Time;durP1;ratioP1;P1;durP2;ratioP2;P2;SDS_P1;SDS_P2;PMS_P1;PMS_P2;Temp;Humidity;BMP_temperature;BMP_pressure;BME280_temperature;BME280_humidity;BME280_pressure;Samples;Min_cycle;Max_cycle;Signal;HPM_P1;HPM_P2
2021/12/31 00:00:11;;;;;;;16.85;13.38;;;;;;;6.03;75.50;102198.06;5034687;28;20462;-77
2021/12/31 00:02:38;;;;;;;19.20;12.55;;;;;;;5.98;75.65;102192.03;5038466;28;20049;-76
2021/12/31 00:05:06;;;;;;;26.83;13.32;;;;;;;6.01;75.30;102186.84;5038349;28;20517;-76
2021/12/31 00:07:32;;;;;;;18.58;11.88;;;;;;;5.87;75.80;102189.59;5038283;28;20100;-76
2021/12/31 00:10:00;;;;;;;15.73;10.90;;;;;;;5.99;75.57;102183.38;5037676;28;20048;-76
2021/12/31 00:12:28;;;;;;;17.33;12.38;;;;;;;6.05;75.07;102189.34;5038500;28;20454;-76
2021/12/31 00:14:55;;;;;;;28.52;11.63;;;;;;;5.94;75.19;102196.47;5038171;28;20112;-76
2021/12/31 00:17:22;;;;;;;25.40;12.77;;;;;;;5.83;75.44;102187.94;5038355;28;20045;-76
2021/12/31 00:19:58;;;;;;;18.48;12.48;;;;;;;5.88;75.46;102186.97;5038036;28;20042;-76
2021/12/31 00:25:10;;;;;;;24.30;12.20;;;;;;;5.83;75.01;102199.19;5038107;28;20069;-76
2021/12/31 00:27:37;;;;;;;21.45;11.88;;;;;;;5.78;74.55;102205.38;5037389;28;20049;-75
2021/12/31 00:30:05;;;;;;;14.93;11.48;;;;;;;5.73;75.41;102197.59;5038014;28;20050;-76
2021/12/31 00:32:31;;;;;;;22.38;12.55;;;;;;;5.80;75.12;102196.66;5038291;28;20072;-76
2021/12/31 00:34:59;;;;;;;20.73;11.45;;;;;;;5.72;75.42;102199.31;5037524;28;20041;-76
2021/12/31 00:37:37;;;;;;;18.42;12.63;;;;;;;5.77;75.05;102201.88;5037910;28;20057;-76
2021/12/31 00:40:07;;;;;;;18.88;11.82;;;;;;;5.70;75.19;102206.31;5037819;28;20562;-75
2021/12/31 00:42:33;;;;;;;25.63;11.85;;;;;;;5.69;75.14;102204.59;5038270;28;20458;-76
2021/12/31 00:45:00;;;;;;;19.67;12.20;;;;;;;5.80;75.19;102199.25;5036908;28;20075;-76
2021/12/31 00:47:27;;;;;;;31.00;12.90;;;;;;;5.80;74.50;102206.19;5037987;28;20049;-76
2021/12/31 00:49:53;;;;;;;19.35;12.50;;;;;;;5.72;75.13;102203.69;5038039;28;20072;-75
2021/12/31 00:52:20;;;;;;;18.13;11.93;;;;;;;5.71;75.24;102205.44;5037696;28;20046;-76
2021/12/31 00:54:47;;;;;;;27.60;12.35;;;;;;;5.65;75.24;102205.50;5036080;28;20094;-75
2021/12/31 00:57:13;;;;;;;24.30;12.23;;;;;;;5.62;75.12;102208.13;5034762;28;20483;-75
2021/12/31 00:59:41;;;;;;;20.17;12.32;;;;;;;5.61;75.15;102216.84;5034659;28;20095;-75
2021/12/31 01:02:10;;;;;;;17.48;11.93;;;;;;;5.68;74.91;102218.47;5033834;28;20103;-75
2021/12/31 01:04:38;;;;;;;26.40;11.95;;;;;;;5.54;75.35;102221.25;5034478;28;20049;-75
2021/12/31 01:07:04;;;;;;;15.95;12.00;;;;;;;5.59;75.46;102223.81;5034567;28;20107;-76
2021/12/31 01:09:32;;;;;;;23.98;11.73;;;;;;;5.56;75.10;102221.22;5034662;28;20492;-76
2021/12/31 01:12:00;;;;;;;16.42;11.27;;;;;;;5.62;75.09;102223.75;5034509;28;20092;-76
2021/12/31 01:14:38;;;;;;;17.17;10.88;;;;;;;5.71;74.97;102228.88;5034297;28;20050;-76
2021/12/31 01:17:09;;;;;;;14.27;11.40;;;;;;;5.75;74.98;102229.69;5033585;28;20092;-76
2021/12/31 01:19:45;;;;;;;17.15;11.55;;;;;;;5.76;74.73;102230.56;5034418;28;20462;-76
2021/12/31 01:22:17;;;;;;;24.95;13.43;;;;;;;5.75;74.89;102239.25;5034472;28;20054;-75
2021/12/31 01:24:44;;;;;;;15.95;11.45;;;;;;;5.62;75.17;102236.78;5034236;28;20499;-75
2021/12/31 01:27:12;;;;;;;19.90;12.98;;;;;;;5.67;75.11;102232.38;5034657;28;20046;-76
2021/12/31 01:29:39;;;;;;;22.63;12.60;;;;;;;5.70;74.88;102234.97;5034594;28;20049;-76
2021/12/31 01:32:06;;;;;;;16.05;11.65;;;;;;;5.67;75.32;102245.41;5019620;28;20080;-75
2021/12/31 01:34:33;;;;;;;15.40;11.80;;;;;;;5.64;75.59;102232.44;5034233;28;20452;-76
2021/12/31 01:36:59;;;;;;;17.00;12.02;;;;;;;5.65;75.31;102238.47;5033616;28;20458;-76
2021/12/31 01:39:27;;;;;;;16.73;11.68;;;;;;;5.57;75.03;102241.19;5034173;28;20581;-76
2021/12/31 01:41:57;;;;;;;21.13;11.20;;;;;;;5.55;75.51;102238.59;5033843;28;20058;-76
2021/12/31 01:44:38;;;;;;;19.13;11.18;;;;;;;5.60;75.24;102235.06;5033956;28;20096;-76
2021/12/31 01:47:09;;;;;;;18.15;11.10;;;;;;;5.55;75.13;102224.72;5033911;28;20099;-76
2021/12/31 01:49:39;;;;;;;36.78;11.60;;;;;;;5.60;74.65;102220.31;5032991;28;20049;-76
2021/12/31 01:52:10;;;;;;;15.05;11.02;;;;;;;5.64;75.23;102219.41;5033481;28;20046;-76
2021/12/31 01:54:38;;;;;;;15.48;11.40;;;;;;;5.64;75.19;102218.56;5033601;28;20096;-76
2021/12/31 01:57:08;;;;;;;16.23;11.10;;;;;;;5.59;75.34;102213.38;5033381;28;20718;-75
2021/12/31 01:59:36;;;;;;;13.30;10.80;;;;;;;5.68;75.06;102217.63;5033648;28;20045;-75
2021/12/31 02:02:05;;;;;;;31.90;11.65;;;;;;;5.67;74.89;102221.09;5033462;28;20488;-76
2021/12/31 02:04:33;;;;;;;20.17;12.43;;;;;;;5.67;75.17;102224.56;5033614;28;20439;-76
2021/12/31 02:07:00;;;;;;;20.23;11.52;;;;;;;5.64;74.99;102229.81;5031173;28;20042;-75
2021/12/31 02:09:28;;;;;;;17.80;12.15;;;;;;;5.67;74.81;102227.16;5033633;28;20045;-75
2021/12/31 02:11:55;;;;;;;13.63;11.00;;;;;;;5.62;75.28;102221.16;5033626;28;20041;-76
2021/12/31 02:14:24;;;;;;;15.60;11.98;;;;;;;5.63;75.12;102230.69;5033814;28;20056;-76
2021/12/31 02:16:52;;;;;;;15.82;11.77;;;;;;;5.67;75.20;102226.31;5033537;28;20107;-76
2021/12/31 02:19:27;;;;;;;16.85;12.43;;;;;;;5.68;75.06;102222.84;5033565;28;20217;-76
2021/12/31 02:21:55;;;;;;;19.63;13.05;;;;;;;5.70;74.99;102227.16;5032444;28;20060;-76
2021/12/31 02:24:23;;;;;;;19.50;11.98;;;;;;;5.72;74.65;102230.56;5033513;28;20046;-76
2021/12/31 02:26:51;;;;;;;15.77;11.82;;;;;;;5.72;74.89;102227.97;5033329;28;20045;-76
2021/12/31 02:29:18;;;;;;;18.98;12.38;;;;;;;5.73;74.73;102221.88;5033250;28;20045;-75
2021/12/31 02:31:46;;;;;;;17.13;12.15;;;;;;;5.76;74.72;102227.94;5032960;28;20046;-76
2021/12/31 02:34:13;;;;;;;16.67;12.00;;;;;;;5.75;74.86;102228.81;5033056;28;20050;-76
2021/12/31 02:36:39;;;;;;;19.50;11.25;;;;;;;5.74;74.55;102222.78;5031702;28;20548;-76
2021/12/31 02:39:06;;;;;;;17.73;11.15;;;;;;;5.74;74.75;102214.97;5031339;28;20045;-76
2021/12/31 02:41:33;;;;;;;17.10;12.05;;;;;;;5.73;74.57;102221.03;5032820;28;20431;-75
2021/12/31 02:44:00;;;;;;;18.15;11.48;;;;;;;5.78;74.65;102213.19;5032720;28;20050;-75
2021/12/31 02:46:27;;;;;;;18.33;12.52;;;;;;;5.76;74.72;102214.94;5032974;28;20049;-76
2021/12/31 02:48:58;;;;;;;18.30;11.80;;;;;;;5.81;74.54;102215.72;5032561;28;20060;-76
2021/12/31 02:51:27;;;;;;;21.52;11.05;;;;;;;5.76;74.40;102210.56;5032925;28;20053;-76
2021/12/31 02:53:55;;;;;;;19.85;12.20;;;;;;;5.71;74.70;102204.56;5031526;28;20046;-75
2021/12/31 02:56:23;;;;;;;17.88;11.45;;;;;;;5.66;74.68;102206.34;5018925;28;20404;-75
2021/12/31 02:58:51;;;;;;;19.65;12.18;;;;;;;5.66;74.62;102203.75;5032781;28;20115;-76
2021/12/31 03:01:18;;;;;;;16.90;12.90;;;;;;;5.65;74.75;102202.91;5046683;28;20045;-75
2021/12/31 03:03:47;;;;;;;16.23;11.90;;;;;;;5.62;74.96;102208.13;5032519;28;20052;-76
2021/12/31 03:06:16;;;;;;;21.98;12.57;;;;;;;5.64;74.75;102208.13;5032475;28;20049;-75
2021/12/31 03:08:48;;;;;;;15.68;11.15;;;;;;;5.66;74.69;102206.34;5031317;28;20488;-76
2021/12/31 03:11:21;;;;;;;17.23;11.38;;;;;;;5.64;74.41;102214.19;5032222;28;20052;-75
2021/12/31 03:13:59;;;;;;;18.52;11.50;;;;;;;5.63;74.68;102204.66;5030592;28;20049;-75
2021/12/31 03:16:27;;;;;;;16.23;12.27;;;;;;;5.64;74.77;102208.13;5031977;28;20076;-76
2021/12/31 03:18:55;;;;;;;15.40;11.32;;;;;;;5.64;74.51;102200.31;5031892;28;20052;-75
2021/12/31 03:21:22;;;;;;;20.55;12.32;;;;;;;5.66;74.48;102203.75;5046216;28;20122;-76
2021/12/31 03:23:54;;;;;;;20.63;12.52;;;;;;;5.59;74.88;102199.50;5032248;28;20095;-75
2021/12/31 03:26:22;;;;;;;16.95;12.70;;;;;;;5.61;74.79;102205.56;5032143;28;20060;-76
2021/12/31 03:28:49;;;;;;;22.63;11.57;;;;;;;5.60;74.58;102196.91;5045088;28;20045;-75
2021/12/31 03:31:16;;;;;;;15.30;11.90;;;;;;;5.54;74.79;102199.56;5032274;28;20099;-76
2021/12/31 03:33:43;;;;;;;14.48;12.20;;;;;;;5.57;74.75;102202.13;5031765;28;20503;-76
2021/12/31 03:36:09;;;;;;;18.38;12.25;;;;;;;5.56;74.77;102203.88;5043591;28;20453;-75
2021/12/31 03:38:36;;;;;;;16.35;11.20;;;;;;;5.56;74.73;102213.41;5033764;28;20103;-76
2021/12/31 03:41:03;;;;;;;13.90;10.50;;;;;;;5.43;74.94;102202.28;5032067;28;20086;-76
2021/12/31 03:43:30;;;;;;;18.25;12.40;;;;;;;5.44;74.78;102208.38;5030951;28;20045;-76
2021/12/31 03:45:56;;;;;;;16.08;11.50;;;;;;;5.47;74.98;102216.13;5031637;28;20042;-75
2021/12/31 03:48:23;;;;;;;16.05;12.02;;;;;;;5.41;74.88;102214.47;5032144;28;20080;-76
2021/12/31 03:50:50;;;;;;;17.10;11.48;;;;;;;5.41;75.19;102211.88;5031805;28;20048;-76
2021/12/31 03:53:17;;;;;;;16.70;12.18;;;;;;;5.46;74.86;102206.59;5031806;28;20049;-75
2021/12/31 03:55:44;;;;;;;20.50;11.75;;;;;;;5.43;74.93;102206.66;5031968;28;20049;-76
2021/12/31 03:58:10;;;;;;;24.27;12.32;;;;;;;5.42;74.82;102210.97;5032208;28;20108;-76
2021/12/31 04:00:38;;;;;;;28.25;12.65;;;;;;;5.40;74.80;102212.75;5031108;28;20045;-75
2021/12/31 04:03:09;;;;;;;19.02;11.57;;;;;;;5.39;74.85;102211.00;5028414;28;20602;-75
2021/12/31 04:05:38;;;;;;;20.67;11.70;;;;;;;5.36;74.98;102209.31;5028822;28;20057;-76
2021/12/31 04:08:05;;;;;;;18.02;11.20;;;;;;;5.23;75.29;102219.00;5028633;28;20057;-76
2021/12/31 04:10:31;;;;;;;28.45;10.98;;;;;;;5.24;75.18;102212.03;5028488;28;20079;-76
2021/12/31 04:12:58;;;;;;;15.57;11.73;;;;;;;5.13;75.70;102216.50;5028386;28;20049;-75
2021/12/31 04:15:25;;;;;;;23.55;11.40;;;;;;;5.15;75.39;102218.19;5028370;28;20049;-76
2021/12/31 04:17:52;;;;;;;14.35;10.30;;;;;;;5.17;75.41;102218.19;5027686;28;20041;-76
2021/12/31 04:20:22;;;;;;;17.63;10.95;;;;;;;5.17;75.27;102216.44;5028666;28;20686;-76
2021/12/31 04:22:57;;;;;;;14.35;10.23;;;;;;;5.23;75.26;102212.91;5028320;28;20045;-76
2021/12/31 04:25:24;;;;;;;;;;;;;;;5.26;75.02;102220.69;5028668;28;20406;-76
2021/12/31 04:27:51;;;;;;;20.65;10.32;;;;;;;5.32;74.76;102220.66;5028245;28;19967;-76
2021/12/31 04:30:17;;;;;;;19.63;10.07;;;;;;;5.21;74.65;102219.88;5029112;28;20400;-76
2021/12/31 04:32:44;;;;;;;13.27;9.43;;;;;;;5.23;75.18;102224.19;5031872;28;20531;-76
2021/12/31 04:35:12;;;;;;;17.40;11.10;;;;;;;5.22;74.89;102221.63;5031362;28;20045;-76
2021/12/31 04:37:44;;;;;;;17.13;10.55;;;;;;;5.26;75.01;102227.63;5031423;28;20049;-76
2021/12/31 04:40:12;;;;;;;15.20;10.73;;;;;;;5.22;75.05;102225.06;5031809;28;20060;-76
2021/12/31 04:42:41;;;;;;;20.58;12.27;;;;;;;5.16;75.02;102226.88;5031568;28;20500;-76
2021/12/31 04:45:12;;;;;;;16.08;10.45;;;;;;;5.19;74.79;102224.22;5031905;28;20049;-76
2021/12/31 04:47:40;;;;;;;16.55;10.38;;;;;;;5.23;74.87;102220.72;5045681;28;20393;-76
2021/12/31 04:50:07;;;;;;;15.93;11.88;;;;;;;5.20;74.76;102219.00;5030948;28;20045;-76
2021/12/31 04:52:33;;;;;;;22.00;11.80;;;;;;;5.21;74.88;102222.50;5031329;28;20049;-76
2021/12/31 04:55:00;;;;;;;31.80;12.13;;;;;;;5.17;74.77;102216.44;5031586;28;20041;-75
2021/12/31 04:57:27;;;;;;;17.17;11.45;;;;;;;5.19;74.59;102221.63;5031308;28;20061;-75
2021/12/31 04:59:54;;;;;;;17.63;12.25;;;;;;;5.16;74.58;102232.09;5031471;28;20123;-75
2021/12/31 05:02:20;;;;;;;16.65;11.15;;;;;;;5.15;74.96;102236.41;5031583;28;20042;-76
2021/12/31 05:04:47;;;;;;;21.42;11.73;;;;;;;5.12;75.00;102236.47;5031106;28;20487;-76
2021/12/31 05:07:14;;;;;;;21.08;11.55;;;;;;;5.09;75.15;102233.88;5030748;28;20056;-76
2021/12/31 05:09:41;;;;;;;17.50;12.00;;;;;;;5.17;74.97;102232.06;5031780;28;20042;-76
2021/12/31 05:12:13;;;;;;;16.35;11.77;;;;;;;5.18;74.70;102228.59;5041093;28;20087;-76
2021/12/31 05:14:42;;;;;;;20.73;12.25;;;;;;;5.20;74.97;102237.22;5034597;28;20450;-76
2021/12/31 05:17:08;;;;;;;17.60;12.65;;;;;;;5.19;74.82;102234.66;5031109;28;20104;-76
2021/12/31 05:19:36;;;;;;;25.83;12.35;;;;;;;5.24;74.71;102235.47;5032330;28;20049;-76
2021/12/31 05:22:02;;;;;;;18.27;12.50;;;;;;;5.27;74.88;102227.63;5043747;28;20053;-76
2021/12/31 05:24:29;;;;;;;25.17;13.27;;;;;;;5.32;74.70;102227.56;5042656;28;20529;-76
2021/12/31 05:26:56;;;;;;;19.27;12.70;;;;;;;5.33;74.86;102232.78;5030955;28;20050;-76
2021/12/31 05:29:22;;;;;;;18.63;12.82;;;;;;;5.34;75.01;102233.63;5031207;28;20140;-76
2021/12/31 05:31:49;;;;;;;19.17;13.90;;;;;;;5.33;74.85;102229.31;5030992;28;20050;-76
2021/12/31 05:34:15;;;;;;;17.65;12.18;;;;;;;5.34;74.90;102234.47;5031302;28;20115;-76
2021/12/31 05:36:42;;;;;;;18.80;12.77;;;;;;;5.33;74.90;102232.78;5030697;28;20061;-76
2021/12/31 05:39:10;;;;;;;22.20;12.77;;;;;;;5.33;74.72;102239.72;5030483;28;20049;-76
2021/12/31 05:41:39;;;;;;;27.85;14.13;;;;;;;5.25;75.03;102245.00;5029530;28;20076;-76
2021/12/31 05:44:09;;;;;;;18.15;13.10;;;;;;;5.29;75.29;102238.03;5030736;28;20053;-75
2021/12/31 05:46:36;;;;;;;18.77;12.27;;;;;;;5.31;74.97;102239.72;5030907;28;20408;-76
2021/12/31 05:49:04;;;;;;;19.60;13.05;;;;;;;5.30;75.27;102239.75;5030330;28;20041;-76
2021/12/31 05:51:31;;;;;;;20.67;13.15;;;;;;;5.23;75.13;102249.34;5030697;28;20046;-76
2021/12/31 05:53:58;;;;;;;18.02;13.10;;;;;;;5.29;75.10;102249.28;5030272;28;20128;-76
2021/12/31 05:56:24;;;;;;;25.83;12.48;;;;;;;5.24;74.95;102258.88;5030737;28;20606;-77
2021/12/31 05:58:51;;;;;;;18.27;11.50;;;;;;;5.22;75.05;102258.91;5029237;28;20071;-77
2021/12/31 06:01:18;;;;;;;24.63;11.05;;;;;;;5.16;74.85;102260.72;5030309;28;20095;-76
2021/12/31 06:03:45;;;;;;;16.25;11.18;;;;;;;5.15;75.12;102251.19;5029275;28;20049;-76
2021/12/31 06:06:12;;;;;;;18.98;11.68;;;;;;;5.13;75.40;102261.59;5030362;28;20053;-76
2021/12/31 06:08:38;;;;;;;19.73;11.82;;;;;;;5.14;75.06;102260.72;5030375;28;20458;-76
2021/12/31 06:11:05;;;;;;;19.77;12.15;;;;;;;5.08;75.07;102260.78;5029999;28;20057;-76
2021/12/31 06:13:31;;;;;;;17.83;12.07;;;;;;;5.09;75.22;102265.09;5030257;28;20099;-76
2021/12/31 06:15:58;;;;;;;17.27;11.05;;;;;;;5.03;75.39;102268.63;5029996;28;20103;-76
2021/12/31 06:18:26;;;;;;;27.98;10.90;;;;;;;4.99;75.11;102274.75;5029012;28;20448;-76
2021/12/31 06:20:53;;;;;;;15.30;10.98;;;;;;;5.04;75.72;102275.56;5030001;28;20050;-76
2021/12/31 06:23:19;;;;;;;13.57;10.57;;;;;;;5.08;75.08;102276.41;5030085;28;20045;-76
2021/12/31 06:25:46;;;;;;;15.20;10.15;;;;;;;5.10;74.89;102273.78;5029810;28;20119;-76
2021/12/31 06:28:13;;;;;;;16.30;10.63;;;;;;;5.12;74.81;102270.28;5029884;28;20053;-76
2021/12/31 06:30:39;;;;;;;20.20;12.50;;;;;;;5.16;74.52;102278.94;5029860;28;20049;-76
2021/12/31 06:33:06;;;;;;;16.75;10.50;;;;;;;5.19;74.67;102284.09;5029484;28;20103;-76
2021/12/31 06:35:33;;;;;;;15.88;10.82;;;;;;;5.19;74.61;102286.69;5028837;28;20049;-76
2021/12/31 06:38:01;;;;;;;21.45;11.38;;;;;;;5.10;74.65;102290.25;5029440;28;20057;-76
2021/12/31 06:40:31;;;;;;;15.45;10.25;;;;;;;5.10;74.81;102287.63;5029805;28;20041;-76
2021/12/31 06:42:58;;;;;;;12.18;10.38;;;;;;;5.11;74.78;102286.75;5029563;28;20052;-76
2021/12/31 06:45:24;;;;;;;16.15;10.88;;;;;;;5.15;74.48;102282.41;5029869;28;20053;-76
2021/12/31 06:47:51;;;;;;;16.25;11.95;;;;;;;5.20;74.55;102284.06;5029553;28;20124;-76
2021/12/31 06:50:19;;;;;;;16.02;10.48;;;;;;;5.21;74.53;102278.00;5028436;28;20046;-76
2021/12/31 06:52:46;;;;;;;17.33;10.50;;;;;;;5.22;74.28;102287.53;5028237;28;20041;-76
2021/12/31 06:55:13;;;;;;;20.42;11.85;;;;;;;5.23;74.31;102283.19;5029429;28;20049;-76
2021/12/31 06:57:39;;;;;;;20.10;11.25;;;;;;;5.22;74.32;102276.28;5029291;28;20670;-76
2021/12/31 07:00:08;;;;;;;20.77;11.80;;;;;;;5.21;74.23;102277.16;5029243;28;20053;-76
2021/12/31 07:02:35;;;;;;;23.13;12.77;;;;;;;5.19;74.47;102279.78;5029042;28;20115;-76
2021/12/31 07:05:02;;;;;;;18.17;11.48;;;;;;;5.15;74.43;102285.00;5029531;28;20080;-76
2021/12/31 07:07:28;;;;;;;19.08;10.60;;;;;;;5.16;74.50;102291.94;5028220;28;20042;-76
2021/12/31 07:09:55;;;;;;;16.88;11.10;;;;;;;5.15;74.32;102293.66;5028984;28;20115;-76
2021/12/31 07:12:22;;;;;;;18.13;11.00;;;;;;;5.16;74.12;102291.94;5029054;28;20103;-76
2021/12/31 07:14:48;;;;;;;15.93;11.98;;;;;;;5.16;74.48;102292.78;5028842;28;20041;-76
2021/12/31 07:17:15;;;;;;;15.23;10.60;;;;;;;5.15;74.21;102296.25;5028888;28;20049;-76
2021/12/31 07:19:43;;;;;;;20.55;12.15;;;;;;;5.15;74.25;102293.66;5029110;28;20045;-76
2021/12/31 07:22:10;;;;;;;17.23;11.90;;;;;;;5.16;74.31;102295.38;5028862;28;20049;-76
2021/12/31 07:24:37;;;;;;;15.43;10.65;;;;;;;5.19;74.56;102299.72;5028039;28;20107;-76
2021/12/31 07:27:04;;;;;;;17.95;10.88;;;;;;;5.11;74.48;102301.53;5015842;28;20053;-76
2021/12/31 07:29:35;;;;;;;16.30;10.65;;;;;;;5.15;74.40;102300.63;5028838;28;20454;-76
2021/12/31 07:32:01;;;;;;;16.67;11.30;;;;;;;5.11;74.44;102298.94;5028985;28;20896;-76
2021/12/31 07:34:28;;;;;;;18.13;10.70;;;;;;;5.08;74.51;102299.81;5029116;28;20052;-76
2021/12/31 07:36:55;;;;;;;15.73;10.95;;;;;;;5.06;74.39;102304.16;5028451;28;20462;-76
2021/12/31 07:39:24;;;;;;;17.88;10.77;;;;;;;5.06;74.43;102301.56;5028814;28;20054;-76
2021/12/31 07:41:51;;;;;;;19.23;10.80;;;;;;;5.09;74.33;102296.31;5027613;28;20104;-76
2021/12/31 07:44:17;;;;;;;15.02;10.90;;;;;;;5.09;74.08;102298.06;5028958;28;20045;-76
2021/12/31 07:46:46;;;;;;;20.17;10.60;;;;;;;5.10;74.11;102305.00;5028781;28;20567;-76
2021/12/31 07:49:12;;;;;;;15.25;10.52;;;;;;;5.11;74.30;102311.94;5027887;28;20084;-76
2021/12/31 07:51:39;;;;;;;16.20;11.45;;;;;;;5.11;74.09;102307.59;5028976;28;20050;-76
2021/12/31 07:54:06;;;;;;;16.00;10.70;;;;;;;5.16;73.87;102304.94;5028196;28;20050;-76
2021/12/31 07:56:33;;;;;;;15.55;11.43;;;;;;;5.17;73.86;102315.34;5027670;28;20500;-76
2021/12/31 07:58:59;;;;;;;38.20;27.55;;;;;;;5.11;73.89;102311.94;5028376;28;20100;-76
2021/12/31 08:01:26;;;;;;;15.02;11.68;;;;;;;5.13;74.27;102313.66;5028533;28;20107;-76
2021/12/31 08:03:53;;;;;;;18.00;11.52;;;;;;;5.22;74.04;102325.72;5029162;28;20048;-76
2021/12/31 08:06:19;;;;;;;24.55;12.10;;;;;;;5.25;73.75;102327.44;5032533;28;20045;-76
2021/12/31 08:08:46;;;;;;;16.00;11.55;;;;;;;5.17;73.89;102333.56;5032537;28;20111;-76
2021/12/31 08:11:12;;;;;;;14.07;11.27;;;;;;;5.22;73.91;102331.78;5031963;28;20458;-76
2021/12/31 08:13:39;;;;;;;17.60;11.20;;;;;;;5.24;73.86;102334.34;5021144;28;20103;-76
2021/12/31 08:16:05;;;;;;;22.88;16.95;;;;;;;5.31;74.02;102329.97;5032584;28;20104;-76
2021/12/31 08:18:32;;;;;;;20.05;14.73;;;;;;;5.28;73.92;102333.47;5032482;28;20052;-76
2021/12/31 08:20:58;;;;;;;17.27;12.13;;;;;;;5.29;73.90;102326.53;5032203;28;20077;-76
2021/12/31 08:23:25;;;;;;;15.77;11.88;;;;;;;5.34;73.83;102332.53;5032087;28;20049;-75
2021/12/31 08:25:52;;;;;;;20.23;11.32;;;;;;;5.25;73.96;102337.84;5032659;28;20095;-76
2021/12/31 08:28:19;;;;;;;14.73;11.02;;;;;;;5.34;73.85;102338.59;5032087;28;20454;-77
2021/12/31 08:30:45;;;;;;;16.25;11.00;;;;;;;5.36;73.68;102341.22;5032285;28;20076;-76
2021/12/31 08:33:12;;;;;;;14.40;10.40;;;;;;;5.41;73.68;102347.25;5032601;28;20049;-77
2021/12/31 08:35:39;;;;;;;13.98;10.35;;;;;;;5.43;73.50;102357.63;5032463;28;20087;-76
2021/12/31 08:38:05;;;;;;;14.15;10.20;;;;;;;5.45;73.39;102346.31;5032056;28;20065;-76
2021/12/31 08:40:32;;;;;;;16.65;11.55;;;;;;;5.49;73.37;102354.97;5032152;28;20496;-76
2021/12/31 08:42:59;;;;;;;16.88;10.20;;;;;;;5.47;73.29;102351.50;5031663;28;20053;-76
2021/12/31 08:45:31;;;;;;;19.83;14.00;;;;;;;5.40;73.62;102354.16;5030487;28;20136;-76
2021/12/31 08:47:59;;;;;;;27.17;17.42;;;;;;;5.33;73.40;102355.13;5031721;28;20083;-76
2021/12/31 08:50:26;;;;;;;57.30;37.28;;;;;;;5.31;73.49;102356.88;5031756;28;20053;-76
2021/12/31 08:52:53;;;;;;;35.03;23.30;;;;;;;5.27;73.70;102354.28;5031519;28;20045;-76
2021/12/31 08:55:21;;;;;;;28.45;17.42;;;;;;;5.21;73.88;102352.63;5031884;28;20447;-76
2021/12/31 08:57:48;;;;;;;25.85;17.38;;;;;;;5.24;73.63;102360.38;5031722;28;20072;-76
2021/12/31 09:00:15;;;;;;;39.72;21.70;;;;;;;5.31;73.37;102367.28;5031596;28;20053;-76
2021/12/31 09:02:42;;;;;;;39.85;23.02;;;;;;;5.32;73.35;102370.72;5030616;28;20458;-76
2021/12/31 09:05:09;;;;;;;17.17;12.75;;;;;;;5.35;73.50;102361.16;5031553;28;20156;-76
2021/12/31 09:07:36;;;;;;;19.58;13.80;;;;;;;5.38;73.19;102375.88;5031281;28;20483;-78
2021/12/31 09:10:04;;;;;;;30.65;18.15;;;;;;;5.41;73.16;102373.28;5031242;28;20037;-71
2021/12/31 09:12:31;;;;;;;21.60;14.98;;;;;;;5.44;73.04;102373.22;5030861;28;20415;-69
2021/12/31 09:14:57;;;;;;;176.55;97.15;;;;;;;5.46;73.18;102368.00;5031038;28;20061;-70
2021/12/31 09:17:24;;;;;;;128.05;69.13;;;;;;;5.39;73.55;102381.06;5029858;28;20046;-70
2021/12/31 09:19:51;;;;;;;44.42;28.10;;;;;;;5.48;73.14;102382.75;5029516;28;20041;-70
2021/12/31 09:22:17;;;;;;;52.17;34.63;;;;;;;5.37;73.36;102375.03;5030853;28;20474;-70
2021/12/31 09:24:45;;;;;;;54.60;33.90;;;;;;;5.45;73.20;102372.38;5030716;28;20099;-70
2021/12/31 09:27:12;;;;;;;62.17;41.97;;;;;;;5.46;72.68;102376.69;5031198;28;20049;-70
2021/12/31 09:29:38;;;;;;;39.55;23.98;;;;;;;5.52;73.28;102376.66;5031092;28;20100;-70
2021/12/31 09:32:06;;;;;;;29.75;14.88;;;;;;;5.47;73.24;102370.63;5021875;28;20049;-70
2021/12/31 09:34:34;;;;;;;29.98;17.38;;;;;;;5.46;73.11;102375.81;5030141;28;20049;-70
2021/12/31 09:37:01;;;;;;;24.67;16.67;;;;;;;5.53;73.32;102377.50;5029485;28;20084;-70
2021/12/31 09:39:27;;;;;;;40.92;23.55;;;;;;;5.44;73.64;102375.84;5030633;28;20462;-70
2021/12/31 09:41:54;;;;;;;48.97;26.80;;;;;;;5.50;73.55;102372.34;5030612;28;20053;-71
2021/12/31 09:44:21;;;;;;;34.22;22.85;;;;;;;5.40;73.79;102372.41;5030345;28;20499;-70
2021/12/31 09:46:48;;;;;;;70.20;37.38;;;;;;;5.54;73.54;102374.03;5030785;28;20076;-70
2021/12/31 09:49:14;;;;;;;50.25;28.67;;;;;;;5.62;73.55;102371.34;5030515;28;20072;-70
2021/12/31 09:51:42;;;;;;;40.70;24.60;;;;;;;5.69;73.33;102375.63;5030685;28;20561;-71
2021/12/31 09:54:10;;;;;;;55.17;27.27;;;;;;;5.69;73.13;102373.88;5028764;28;20537;-70
2021/12/31 09:56:41;;;;;;;40.38;25.00;;;;;;;5.76;73.35;102381.63;5029971;28;20091;-70
2021/12/31 09:59:09;;;;;;;52.45;27.20;;;;;;;5.78;73.38;102382.50;5027066;28;20061;-70
2021/12/31 10:01:46;;;;;;;55.75;30.33;;;;;;;5.71;73.27;102379.94;5029611;28;20042;-71
2021/12/31 10:04:13;;;;;;;34.08;21.27;;;;;;;5.72;73.35;102381.66;5029353;28;20061;-70
2021/12/31 10:07:05;;;;;;;36.40;21.85;;;;;;;5.72;73.38;102389.47;5029611;28;20048;-71
2021/12/31 10:09:33;;;;;;;;;;;;;;;5.70;73.65;102377.31;5024715;28;20041;-71
2021/12/31 10:12:07;;;;;;;30.73;20.17;;;;;;;5.81;73.19;102387.66;5030048;28;19987;-71
2021/12/31 10:14:39;;;;;;;43.17;24.98;;;;;;;5.85;73.35;102385.00;5029589;28;20099;-71
2021/12/31 10:17:06;;;;;;;37.47;23.42;;;;;;;5.89;73.27;102380.59;5029441;28;20045;-71
2021/12/31 10:19:34;;;;;;;75.70;36.78;;;;;;;5.90;73.25;102382.34;5029431;28;20045;-70
2021/12/31 10:22:01;;;;;;;65.03;34.15;;;;;;;5.78;73.59;102375.53;5029336;28;20041;-71
2021/12/31 10:24:40;;;;;;;95.18;42.97;;;;;;;5.73;73.75;102372.97;5026900;28;20550;-72
2021/12/31 10:27:09;;;;;;;54.35;28.60;;;;;;;5.77;73.73;102370.34;5027879;28;20057;-72
2021/12/31 10:29:57;;;;;;;79.82;37.53;;;;;;;5.70;73.78;102373.00;5028842;28;20115;-72
2021/12/31 10:32:26;;;;;;;58.08;30.35;;;;;;;5.82;73.81;102373.75;5028781;28;20045;-72
2021/12/31 10:34:53;;;;;;;46.78;26.73;;;;;;;5.80;73.59;102371.19;5027928;28;20042;-72
2021/12/31 10:37:24;;;;;;;46.08;24.25;;;;;;;5.86;73.51;102370.22;5028938;28;20508;-72
2021/12/31 10:39:59;;;;;;;66.28;33.47;;;;;;;5.84;73.88;102361.56;5029058;28;20046;-72
2021/12/31 10:42:33;;;;;;;56.63;28.00;;;;;;;5.97;73.44;102370.97;5028006;28;20095;-73
2021/12/31 10:45:03;;;;;;;56.67;29.42;;;;;;;5.87;73.38;102371.97;5028778;28;20049;-72
2021/12/31 10:47:33;;;;;;;49.45;27.92;;;;;;;5.79;74.15;102355.53;5025889;28;20065;-72
2021/12/31 10:50:00;;;;;;;58.00;31.10;;;;;;;5.82;73.82;102353.75;5028974;28;20046;-73
2021/12/31 10:52:34;;;;;;;151.90;88.78;;;;;;;5.93;73.58;102356.28;5028647;28;20046;-73
2021/12/31 10:55:24;;;;;;;40.13;28.88;;;;;;;5.83;73.94;102347.69;5028560;28;20088;-72
2021/12/31 10:58:03;;;;;;;26.23;18.52;;;;;;;5.94;73.65;102341.50;5025162;28;20067;-72
2021/12/31 11:00:40;;;;;;;31.45;19.40;;;;;;;6.11;73.81;102343.94;5021124;28;20170;-73
2021/12/31 11:03:08;;;;;;;69.38;38.53;;;;;;;6.13;73.29;102340.44;5015945;28;20060;-73
2021/12/31 11:05:36;;;;;;;133.15;70.15;;;;;;;5.98;73.70;102328.44;5029151;28;20080;-73
2021/12/31 11:08:05;;;;;;;73.13;40.72;;;;;;;6.13;73.50;102318.72;5029072;28;20103;-73
2021/12/31 11:10:38;;;;;;;93.03;51.80;;;;;;;6.13;73.39;102322.19;5029266;28;20045;-73
2021/12/31 11:13:10;;;;;;;67.25;38.63;;;;;;;6.17;73.49;102323.00;5022170;28;20053;-73
2021/12/31 11:15:39;;;;;;;32.60;20.80;;;;;;;6.11;73.67;102315.28;5025128;28;20483;-73
2021/12/31 11:18:08;;;;;;;78.57;38.78;;;;;;;6.13;73.93;102308.28;5020718;28;20049;-73
2021/12/31 11:20:35;;;;;;;89.82;44.03;;;;;;;6.10;73.69;102314.41;5023553;28;20041;-73
2021/12/31 11:23:02;;;;;;;242.38;99.47;;;;;;;6.08;74.16;102320.50;5028561;28;20049;-73